createdAt,value
2022-08-17T00:05:00.817Z,26.80
2022-08-17T00:10:04.284Z,26.70
2022-08-17T00:15:10.510Z,26.60
2022-08-17T00:20:16.206Z,26.40
2022-08-17T00:25:22.100Z,26.30
2022-08-17T00:30:25.744Z,26.20
2022-08-17T00:35:30.606Z,26.10
2022-08-17T00:40:40.592Z,26.00
2022-08-17T00:45:49.102Z,25.70
2022-08-17T00:50:59.432Z,25.50
2022-08-17T00:56:06.065Z,25.30
2022-08-17T01:01:11.522Z,25.20
2022-08-17T01:06:16.465Z,25.10
2022-08-17T01:11:20.971Z,25.10
2022-08-17T01:16:26.804Z,25.20
2022-08-17T01:21:39.479Z,25.10
2022-08-17T01:26:45.360Z,25.20
2022-08-17T01:31:53.680Z,25.20
2022-08-17T01:36:57.291Z,25.20
2022-08-17T01:42:07.150Z,25.20
2022-08-17T01:47:10.798Z,25.20
2022-08-17T01:52:15.428Z,25.20
2022-08-17T01:57:20.149Z,25.20
2022-08-17T02:02:31.412Z,25.20
2022-08-17T02:07:59.442Z,25.20
2022-08-17T02:13:02.157Z,25.20
2022-08-17T02:18:07.401Z,25.20
2022-08-17T02:23:12.984Z,25.20
2022-08-17T02:28:18.814Z,25.10
2022-08-17T02:33:22.266Z,25.10
2022-08-17T02:38:25.896Z,25.00
2022-08-17T02:43:30.787Z,24.80
2022-08-17T02:48:34.282Z,24.70
2022-08-17T02:53:37.644Z,24.60
2022-08-17T02:58:42.368Z,24.50
2022-08-17T03:03:46.016Z,24.40
2022-08-17T03:08:49.788Z,24.30
2022-08-17T03:13:54.968Z,24.20
2022-08-17T03:18:58.792Z,24.20
2022-08-17T03:24:02.160Z,24.30
2022-08-17T03:29:18.910Z,24.30
2022-08-17T03:34:24.371Z,24.30
2022-08-17T03:39:27.738Z,24.30
2022-08-17T03:44:33.031Z,24.30
2022-08-17T03:49:56.341Z,24.30
2022-08-17T03:55:22.843Z,24.30
2022-08-17T04:00:45.458Z,24.30
2022-08-17T04:05:48.810Z,24.10
2022-08-17T04:10:52.221Z,24.10
2022-08-17T04:15:57.573Z,24.10
2022-08-17T04:21:01.069Z,24.00
2022-08-17T04:26:04.797Z,24.00
2022-08-17T04:31:10.199Z,23.90
2022-08-17T04:36:16.415Z,23.90
2022-08-17T04:41:37.513Z,23.80
2022-08-17T04:46:42.573Z,23.70
2022-08-17T04:51:54.510Z,23.70
2022-08-17T04:56:59.733Z,23.80
2022-08-17T05:02:04.450Z,23.80
2022-08-17T05:07:07.875Z,23.80
2022-08-17T05:12:11.252Z,23.80
2022-08-17T05:17:16.409Z,23.80
2022-08-17T05:22:19.921Z,23.80
2022-08-17T05:27:23.644Z,23.80
2022-08-17T05:32:39.362Z,23.70
2022-08-17T05:37:43.759Z,23.80
2022-08-17T05:42:47.737Z,23.80
2022-08-17T05:47:52.592Z,23.90
2022-08-17T05:53:03.920Z,24.00
2022-08-17T05:58:19.500Z,24.10
2022-08-17T06:03:48.991Z,24.20
2022-08-17T06:08:57.761Z,24.30
2022-08-17T06:14:20.068Z,24.30
2022-08-17T06:19:32.534Z,24.50
2022-08-17T06:24:40.130Z,24.50
2022-08-17T06:29:51.805Z,24.60
2022-08-17T06:34:57.457Z,24.70
2022-08-17T06:40:15.599Z,24.80
2022-08-17T06:45:22.703Z,24.90
2022-08-17T06:50:38.057Z,25.00
2022-08-17T06:55:46.783Z,25.10
2022-08-17T07:00:58.496Z,25.10
2022-08-17T07:06:12.133Z,25.20
2022-08-17T07:11:21.163Z,25.40
2022-08-17T07:16:31.681Z,25.50
2022-08-17T07:21:46.098Z,25.60
2022-08-17T07:27:04.044Z,25.70
2022-08-17T07:32:09.241Z,25.80
2022-08-17T07:37:19.916Z,25.90
2022-08-17T07:42:23.994Z,26.00
2022-08-17T07:47:53.219Z,26.10
2022-08-17T07:52:59.256Z,26.30
2022-08-17T07:58:03.674Z,26.40
2022-08-17T08:03:23.716Z,26.50
2022-08-17T08:08:38.559Z,26.60
2022-08-17T08:13:45.806Z,26.70
2022-08-17T08:18:55.382Z,26.80
2022-08-17T08:24:17.039Z,26.90
2022-08-17T08:29:28.810Z,27.00
2022-08-17T08:35:02.703Z,27.10
2022-08-17T08:40:21.397Z,27.10
2022-08-17T08:45:30.615Z,27.20
2022-08-17T08:50:42.962Z,27.30
2022-08-17T08:55:58.696Z,27.40
2022-08-17T09:01:08.836Z,27.50
2022-08-17T09:06:39.735Z,27.60
2022-08-17T09:12:02.140Z,27.70
2022-08-17T09:17:12.986Z,27.80
2022-08-17T09:22:31.636Z,27.90
2022-08-17T09:27:49.414Z,28.00
2022-08-17T09:32:57.916Z,28.10
2022-08-17T09:38:06.471Z,28.30
2022-08-17T09:43:24.985Z,28.30
2022-08-17T09:48:33.366Z,28.50
2022-08-17T09:53:38.691Z,28.60
2022-08-17T09:58:57.511Z,28.70
2022-08-17T10:04:24.847Z,28.80
2022-08-17T10:09:43.153Z,28.90
2022-08-17T10:15:08.170Z,29.00
2022-08-17T10:20:17.957Z,29.10
2022-08-17T10:25:54.094Z,29.20
2022-08-17T10:31:33.237Z,29.30
2022-08-17T10:36:46.359Z,29.50
2022-08-17T10:41:54.112Z,29.60
2022-08-17T10:47:08.530Z,29.70
2022-08-17T10:52:48.784Z,29.70
2022-08-17T10:57:54.921Z,29.90
2022-08-17T11:03:00.775Z,30.00
2022-08-17T11:08:37.780Z,30.10
2022-08-17T11:13:52.329Z,30.40
2022-08-17T11:19:23.666Z,30.50
2022-08-17T11:24:34.881Z,30.70
2022-08-17T11:29:52.651Z,30.90
2022-08-17T11:35:12.058Z,31.00
2022-08-17T11:40:34.591Z,31.20
2022-08-17T11:45:53.597Z,31.40
2022-08-17T11:51:24.262Z,31.60
2022-08-17T11:56:37.480Z,31.80
2022-08-17T12:01:55.860Z,32.20
2022-08-17T12:07:10.201Z,33.10
2022-08-17T12:12:17.639Z,33.90
2022-08-17T12:17:40.118Z,34.70
2022-08-17T12:22:56.428Z,35.30
2022-08-17T12:28:06.738Z,35.80
2022-08-17T12:33:25.350Z,36.30
2022-08-17T12:38:34.696Z,36.80
2022-08-17T12:43:38.982Z,37.20
2022-08-17T12:48:55.087Z,37.60
2022-08-17T12:54:05.129Z,38.00
2022-08-17T12:59:12.028Z,38.30
2022-08-17T13:04:17.580Z,38.40
2022-08-17T13:09:36.038Z,38.60
2022-08-17T13:14:47.238Z,38.90
2022-08-17T13:19:52.645Z,39.00
2022-08-17T13:25:03.931Z,39.10
2022-08-17T13:30:13.042Z,39.10
2022-08-17T13:35:44.267Z,39.30
2022-08-17T13:40:55.294Z,39.40
2022-08-17T13:46:10.491Z,39.50
2022-08-17T13:51:18.654Z,39.80
2022-08-17T13:56:39.486Z,40.10
2022-08-17T14:01:51.059Z,40.40
2022-08-17T14:07:00.564Z,40.50
2022-08-17T14:12:07.623Z,40.60
2022-08-17T14:17:11.713Z,40.80
2022-08-17T14:22:19.921Z,41.10
2022-08-17T14:27:27.980Z,41.20
2022-08-17T14:32:33.342Z,41.50
2022-08-17T14:37:36.727Z,41.70
2022-08-17T14:42:46.047Z,42.00
2022-08-17T14:47:49.388Z,42.30
2022-08-17T14:52:52.774Z,42.60
2022-08-17T14:57:57.581Z,42.80
2022-08-17T15:03:02.373Z,43.10
2022-08-17T15:08:06.833Z,43.30
2022-08-17T15:13:23.028Z,43.40
2022-08-17T15:18:26.675Z,43.60
2022-08-17T15:23:29.983Z,43.80
2022-08-17T15:28:34.725Z,44.00
2022-08-17T15:33:38.347Z,43.70
2022-08-17T15:38:41.980Z,43.50
2022-08-17T15:43:50.948Z,43.40
2022-08-17T15:48:59.624Z,43.60
2022-08-17T15:54:22.438Z,44.10
2022-08-17T15:59:30.326Z,44.50
2022-08-17T16:04:33.751Z,44.70
2022-08-17T16:09:38.443Z,44.60
2022-08-17T16:14:43.712Z,44.30
2022-08-17T16:19:47.420Z,44.20
2022-08-17T16:24:57.483Z,44.40
2022-08-17T16:30:02.787Z,44.40
2022-08-17T16:35:10.677Z,44.30
2022-08-17T16:40:15.656Z,44.10
2022-08-17T16:45:22.319Z,43.90
2022-08-17T16:50:26.298Z,43.70
2022-08-17T16:55:29.720Z,43.50
2022-08-17T17:00:34.943Z,43.30
2022-08-17T17:05:57.736Z,42.90
2022-08-17T17:11:11.532Z,42.60
2022-08-17T17:16:21.629Z,42.10
2022-08-17T17:21:33.546Z,41.70
2022-08-17T17:26:57.349Z,41.30
2022-08-17T17:32:14.032Z,40.80
2022-08-17T17:37:27.501Z,40.30
2022-08-17T17:42:33.116Z,39.90
2022-08-17T17:47:38.390Z,39.50
2022-08-17T17:52:50.537Z,39.10
2022-08-17T17:58:03.755Z,38.80
2022-08-17T18:03:24.200Z,38.40
2022-08-17T18:08:42.474Z,38.10
2022-08-17T18:14:03.843Z,37.80
2022-08-17T18:19:13.432Z,37.50
2022-08-17T18:24:31.200Z,37.20
2022-08-17T18:29:42.332Z,36.90
2022-08-17T18:34:49.738Z,36.50
2022-08-17T18:39:53.396Z,36.20
2022-08-17T18:44:57.340Z,36.00
2022-08-17T18:50:22.085Z,35.70
2022-08-17T18:55:29.405Z,35.50
2022-08-17T19:00:37.194Z,35.20
2022-08-17T19:05:45.274Z,35.10
2022-08-17T19:10:51.687Z,34.90
2022-08-17T19:16:14.443Z,34.70
2022-08-17T19:21:24.262Z,34.60
2022-08-17T19:26:53.977Z,34.40
2022-08-17T19:31:58.718Z,34.20
2022-08-17T19:37:08.871Z,34.10
2022-08-17T19:42:27.899Z,34.00
2022-08-17T19:47:55.394Z,33.80
2022-08-17T19:53:08.459Z,33.60
2022-08-17T19:58:21.045Z,33.50
2022-08-17T20:03:30.654Z,33.40
2022-08-17T20:08:40.191Z,33.30
2022-08-17T20:13:47.458Z,33.20
2022-08-17T20:18:59.217Z,33.00
2022-08-17T20:24:22.612Z,32.90
2022-08-17T20:29:39.824Z,32.80
2022-08-17T20:34:47.575Z,32.70
2022-08-17T20:45:59.814Z,32.60
2022-08-17T20:51:18.565Z,32.40
2022-08-17T20:56:57.344Z,32.50
2022-08-17T21:02:18.377Z,32.60
2022-08-17T21:07:33.037Z,32.50
2022-08-17T21:12:51.606Z,32.40
2022-08-17T21:18:06.574Z,32.30
2022-08-17T21:23:36.069Z,32.20
2022-08-17T21:28:59.983Z,32.00
2022-08-17T21:34:30.808Z,31.90
2022-08-17T21:39:41.767Z,31.70
2022-08-17T21:44:49.870Z,31.60
2022-08-17T21:49:53.880Z,31.40
2022-08-17T21:55:02.455Z,31.30
2022-08-17T22:00:15.809Z,31.20
2022-08-17T22:05:30.124Z,31.10
2022-08-17T22:10:41.265Z,31.00
2022-08-17T22:15:46.991Z,30.90
2022-08-17T22:20:53.291Z,30.80
2022-08-17T22:26:05.224Z,30.70
2022-08-17T22:31:15.727Z,30.60
2022-08-17T22:36:26.381Z,30.50
2022-08-17T22:41:44.531Z,30.40
2022-08-17T22:46:56.371Z,30.40
2022-08-17T22:52:07.647Z,30.30
2022-08-17T22:57:32.727Z,30.10
2022-08-17T23:02:53.011Z,30.00
2022-08-17T23:07:59.535Z,29.90
2022-08-17T23:13:04.753Z,29.80
2022-08-17T23:18:08.549Z,29.70
2022-08-17T23:23:14.721Z,29.70
2022-08-17T23:28:19.818Z,29.60
2022-08-17T23:33:30.972Z,29.50
2022-08-17T23:38:34.300Z,29.50
2022-08-17T23:48:57.108Z,29.30
2022-08-17T23:54:08.334Z,29.10
2022-08-17T23:59:13.641Z,29.00
